Overview Statistics Trail Chart Weather Telemetry Raw packets
 

This is the latest recevied weather packets stored in our database for station/object IW1RCO-13. If no packets are shown the sender has not sent any weather packets the latest 10 day(s).

<< 17 18 19 20 21 22 23 >>
Time Temp. Humidity Pressure Rain* Wind** Luminosity Snow
1788542371 25.56° C 61% 1019.5 hPa - - - -
1788542067 25.56° C 59% 1019.9 hPa - - - -
1788541770 26.11° C 59% 1019.9 hPa - - - -
1788541467 26.11° C 61% 1019.9 hPa - - - -
1788541170 26.11° C 58% 1019.8 hPa - - - -
1788540866 26.11° C 59% 1019.4 hPa - - - -
1788540570 26.67° C 57% 1019.7 hPa - - - -
1788540273 26.67° C 56% 1019.8 hPa - - - -
1788539969 26.11° C 54% 1019.1 hPa - - - -
1788539673 26.67° C 53% 1019.8 hPa - - - -
1788539369 26.67° C 51% 1020 hPa - - - -
1788539073 27.22° C 53% 1020 hPa - - - -
1788538769 28.33° C 46% 1019.9 hPa - - - -
1788538472 28.89° C 44% 1019.2 hPa - - - -
1788538169 29.44° C 42% 1020 hPa - - - -
1788537872 30° C 44% 1019.4 hPa - - - -
1788537568 30.56° C 45% 1019.2 hPa - - - -
1788537272 30° C 46% 1019.7 hPa - - - -
1788536968 30° C 47% 1019.8 hPa - - - -
1788536672 30° C 48% 1019.8 hPa - - - -
1788536368 30° C 48% 1019.8 hPa - - - -
1788536071 29.44° C 51% 1020 hPa - - - -
1788535768 30° C 46% 1019.9 hPa - - - -
1788535471 30° C 48% 1019.9 hPa - - - -
1788532469 29.44° C 56% 1020 hPa - - - -

* Rain since midnight (hover to see other rain measurements)
** Current wind speed in m/s (hover to see current wind gust speed)